sensor_id;sensor_type;location;lat;lon;timestamp;temperature;humidity
5246;DHT22;54412;51.206;6.888;2022-07-29T00:00:08;21.20;91.60
5246;DHT22;54412;51.206;6.888;2022-07-29T00:02:34;21.30;91.20
5246;DHT22;54412;51.206;6.888;2022-07-29T00:05:01;21.40;91.20
5246;DHT22;54412;51.206;6.888;2022-07-29T00:07:27;21.30;91.10
5246;DHT22;54412;51.206;6.888;2022-07-29T00:09:53;21.40;91.10
5246;DHT22;54412;51.206;6.888;2022-07-29T00:12:20;21.40;91.20
5246;DHT22;54412;51.206;6.888;2022-07-29T00:14:47;21.40;91.10
5246;DHT22;54412;51.206;6.888;2022-07-29T00:17:13;21.40;91.10
5246;DHT22;54412;51.206;6.888;2022-07-29T00:19:39;21.40;91.10
5246;DHT22;54412;51.206;6.888;2022-07-29T00:22:04;21.30;91.10
5246;DHT22;54412;51.206;6.888;2022-07-29T00:24:30;21.20;91.10
5246;DHT22;54412;51.206;6.888;2022-07-29T00:26:56;21.30;91.30
5246;DHT22;54412;51.206;6.888;2022-07-29T00:29:21;21.20;91.20
5246;DHT22;54412;51.206;6.888;2022-07-29T00:31:47;21.20;91.50
5246;DHT22;54412;51.206;6.888;2022-07-29T00:34:13;21.30;91.50
5246;DHT22;54412;51.206;6.888;2022-07-29T00:36:57;21.20;91.60
5246;DHT22;54412;51.206;6.888;2022-07-29T00:39:23;21.20;91.60
5246;DHT22;54412;51.206;6.888;2022-07-29T00:41:49;21.10;91.60
5246;DHT22;54412;51.206;6.888;2022-07-29T00:44:15;21.10;91.60
5246;DHT22;54412;51.206;6.888;2022-07-29T00:46:41;21.10;91.80
5246;DHT22;54412;51.206;6.888;2022-07-29T00:49:07;21.10;91.90
5246;DHT22;54412;51.206;6.888;2022-07-29T00:51:35;21.20;91.80
5246;DHT22;54412;51.206;6.888;2022-07-29T00:54:03;21.10;91.60
5246;DHT22;54412;51.206;6.888;2022-07-29T00:56:31;21.10;91.80
5246;DHT22;54412;51.206;6.888;2022-07-29T00:58:58;21.10;91.80
5246;DHT22;54412;51.206;6.888;2022-07-29T01:01:25;21.00;92.00
5246;DHT22;54412;51.206;6.888;2022-07-29T01:03:51;21.00;91.90
5246;DHT22;54412;51.206;6.888;2022-07-29T01:06:18;21.00;92.00
5246;DHT22;54412;51.206;6.888;2022-07-29T01:08:47;21.00;91.90
5246;DHT22;54412;51.206;6.888;2022-07-29T01:11:15;21.00;92.00
5246;DHT22;54412;51.206;6.888;2022-07-29T01:13:43;21.00;92.40
5246;DHT22;54412;51.206;6.888;2022-07-29T01:16:21;21.00;92.40
5246;DHT22;54412;51.206;6.888;2022-07-29T01:19:03;21.00;92.40
5246;DHT22;54412;51.206;6.888;2022-07-29T01:24:31;21.00;92.30
5246;DHT22;54412;51.206;6.888;2022-07-29T01:30:25;21.00;92.40
5246;DHT22;54412;51.206;6.888;2022-07-29T01:33:02;21.00;92.30
5246;DHT22;54412;51.206;6.888;2022-07-29T01:35:36;21.00;92.40
5246;DHT22;54412;51.206;6.888;2022-07-29T01:38:12;21.00;92.70
5246;DHT22;54412;51.206;6.888;2022-07-29T01:41:18;21.00;92.60
5246;DHT22;54412;51.206;6.888;2022-07-29T01:43:56;21.00;92.60
5246;DHT22;54412;51.206;6.888;2022-07-29T01:46:48;20.90;92.40
5246;DHT22;54412;51.206;6.888;2022-07-29T01:49:21;21.00;92.60
5246;DHT22;54412;51.206;6.888;2022-07-29T01:52:05;21.00;92.50
5246;DHT22;54412;51.206;6.888;2022-07-29T01:54:39;20.90;92.50
5246;DHT22;54412;51.206;6.888;2022-07-29T01:57:11;21.00;92.60
5246;DHT22;54412;51.206;6.888;2022-07-29T01:59:40;21.00;92.60
5246;DHT22;54412;51.206;6.888;2022-07-29T02:02:10;21.00;92.60
5246;DHT22;54412;51.206;6.888;2022-07-29T02:04:40;21.00;92.60
5246;DHT22;54412;51.206;6.888;2022-07-29T02:07:09;21.00;92.90
5246;DHT22;54412;51.206;6.888;2022-07-29T02:09:39;21.00;93.10
5246;DHT22;54412;51.206;6.888;2022-07-29T02:12:07;21.00;93.30
5246;DHT22;54412;51.206;6.888;2022-07-29T02:14:38;21.00;93.50
5246;DHT22;54412;51.206;6.888;2022-07-29T02:17:08;21.00;93.70
5246;DHT22;54412;51.206;6.888;2022-07-29T02:19:37;21.00;93.90
5246;DHT22;54412;51.206;6.888;2022-07-29T02:22:06;20.90;93.90
5246;DHT22;54412;51.206;6.888;2022-07-29T02:24:35;21.00;94.10
5246;DHT22;54412;51.206;6.888;2022-07-29T02:27:04;20.80;94.10
5246;DHT22;54412;51.206;6.888;2022-07-29T02:29:30;20.70;94.40
5246;DHT22;54412;51.206;6.888;2022-07-29T02:31:58;20.80;94.50
5246;DHT22;54412;51.206;6.888;2022-07-29T02:34:26;20.90;94.60
5246;DHT22;54412;51.206;6.888;2022-07-29T02:36:54;20.90;94.60
5246;DHT22;54412;51.206;6.888;2022-07-29T02:39:23;20.90;94.70
5246;DHT22;54412;51.206;6.888;2022-07-29T02:41:55;20.90;94.80
5246;DHT22;54412;51.206;6.888;2022-07-29T02:44:35;20.90;94.70
5246;DHT22;54412;51.206;6.888;2022-07-29T02:47:10;20.80;94.70
5246;DHT22;54412;51.206;6.888;2022-07-29T02:50:08;20.90;94.60
5246;DHT22;54412;51.206;6.888;2022-07-29T02:52:42;20.80;94.50
5246;DHT22;54412;51.206;6.888;2022-07-29T02:55:29;20.80;94.30
5246;DHT22;54412;51.206;6.888;2022-07-29T02:58:02;20.80;93.90
5246;DHT22;54412;51.206;6.888;2022-07-29T03:00:39;20.80;94.00
5246;DHT22;54412;51.206;6.888;2022-07-29T03:03:13;20.80;94.30
5246;DHT22;54412;51.206;6.888;2022-07-29T03:05:41;20.90;93.80
5246;DHT22;54412;51.206;6.888;2022-07-29T03:08:09;20.80;93.80
5246;DHT22;54412;51.206;6.888;2022-07-29T03:10:39;20.80;93.80
5246;DHT22;54412;51.206;6.888;2022-07-29T03:13:08;20.80;93.80
5246;DHT22;54412;51.206;6.888;2022-07-29T03:15:35;20.80;93.70
5246;DHT22;54412;51.206;6.888;2022-07-29T03:18:02;20.80;93.70
5246;DHT22;54412;51.206;6.888;2022-07-29T03:20:29;20.70;93.60
5246;DHT22;54412;51.206;6.888;2022-07-29T03:22:54;20.70;93.80
5246;DHT22;54412;51.206;6.888;2022-07-29T03:25:20;20.70;93.80
5246;DHT22;54412;51.206;6.888;2022-07-29T03:27:47;20.70;93.70
5246;DHT22;54412;51.206;6.888;2022-07-29T03:30:13;20.80;93.60
5246;DHT22;54412;51.206;6.888;2022-07-29T03:32:41;20.80;93.30
5246;DHT22;54412;51.206;6.888;2022-07-29T03:35:07;20.70;93.20
5246;DHT22;54412;51.206;6.888;2022-07-29T03:37:33;20.80;93.50
5246;DHT22;54412;51.206;6.888;2022-07-29T03:40:03;20.80;94.60
5246;DHT22;54412;51.206;6.888;2022-07-29T03:42:33;20.70;95.10
5246;DHT22;54412;51.206;6.888;2022-07-29T03:45:06;20.50;95.70
5246;DHT22;54412;51.206;6.888;2022-07-29T03:47:35;20.40;95.90
5246;DHT22;54412;51.206;6.888;2022-07-29T03:50:06;20.40;96.50
5246;DHT22;54412;51.206;6.888;2022-07-29T03:52:36;20.20;96.30
5246;DHT22;54412;51.206;6.888;2022-07-29T03:55:03;20.10;96.70
5246;DHT22;54412;51.206;6.888;2022-07-29T03:57:30;20.10;96.90
5246;DHT22;54412;51.206;6.888;2022-07-29T03:59:57;20.00;96.80
5246;DHT22;54412;51.206;6.888;2022-07-29T04:02:25;19.90;97.30
5246;DHT22;54412;51.206;6.888;2022-07-29T04:04:52;19.90;97.20
5246;DHT22;54412;51.206;6.888;2022-07-29T04:07:18;19.80;97.40
5246;DHT22;54412;51.206;6.888;2022-07-29T04:09:44;19.80;97.50
5246;DHT22;54412;51.206;6.888;2022-07-29T04:12:10;19.70;97.70
5246;DHT22;54412;51.206;6.888;2022-07-29T04:14:36;19.60;98.00
5246;DHT22;54412;51.206;6.888;2022-07-29T04:17:02;19.60;97.40
5246;DHT22;54412;51.206;6.888;2022-07-29T04:19:29;19.60;97.20
5246;DHT22;54412;51.206;6.888;2022-07-29T04:21:56;19.60;97.30
5246;DHT22;54412;51.206;6.888;2022-07-29T04:24:23;19.60;97.10
5246;DHT22;54412;51.206;6.888;2022-07-29T04:26:48;19.50;97.10
5246;DHT22;54412;51.206;6.888;2022-07-29T04:29:14;19.40;97.10
5246;DHT22;54412;51.206;6.888;2022-07-29T04:31:41;19.50;97.00
5246;DHT22;54412;51.206;6.888;2022-07-29T04:34:07;19.50;97.00
5246;DHT22;54412;51.206;6.888;2022-07-29T04:36:33;19.50;97.10
5246;DHT22;54412;51.206;6.888;2022-07-29T04:38:59;19.50;97.10
5246;DHT22;54412;51.206;6.888;2022-07-29T04:41:26;19.60;97.10
5246;DHT22;54412;51.206;6.888;2022-07-29T04:43:52;19.70;96.90
5246;DHT22;54412;51.206;6.888;2022-07-29T04:46:18;19.60;97.40
5246;DHT22;54412;51.206;6.888;2022-07-29T04:48:47;19.60;98.10
5246;DHT22;54412;51.206;6.888;2022-07-29T04:51:16;19.60;99.10
5246;DHT22;54412;51.206;6.888;2022-07-29T04:53:42;19.60;99.90
5246;DHT22;54412;51.206;6.888;2022-07-29T04:56:08;19.30;99.90
5246;DHT22;54412;51.206;6.888;2022-07-29T04:58:37;19.10;99.90
5246;DHT22;54412;51.206;6.888;2022-07-29T05:01:03;19.10;99.90
5246;DHT22;54412;51.206;6.888;2022-07-29T05:03:29;19.00;99.90
5246;DHT22;54412;51.206;6.888;2022-07-29T05:05:55;19.00;99.90
5246;DHT22;54412;51.206;6.888;2022-07-29T05:08:21;19.00;99.90
5246;DHT22;54412;51.206;6.888;2022-07-29T05:10:47;19.00;99.90
5246;DHT22;54412;51.206;6.888;2022-07-29T05:13:12;19.20;99.90
5246;DHT22;54412;51.206;6.888;2022-07-29T05:15:38;19.30;99.90
5246;DHT22;54412;51.206;6.888;2022-07-29T05:18:04;19.30;99.90
5246;DHT22;54412;51.206;6.888;2022-07-29T05:20:31;19.30;99.90
5246;DHT22;54412;51.206;6.888;2022-07-29T05:22:59;19.20;99.90
5246;DHT22;54412;51.206;6.888;2022-07-29T05:25:26;19.30;99.90
5246;DHT22;54412;51.206;6.888;2022-07-29T05:27:52;19.30;99.90
5246;DHT22;54412;51.206;6.888;2022-07-29T05:30:19;19.40;99.90
5246;DHT22;54412;51.206;6.888;2022-07-29T05:32:45;19.40;99.90
5246;DHT22;54412;51.206;6.888;2022-07-29T05:35:11;19.40;99.90
5246;DHT22;54412;51.206;6.888;2022-07-29T05:37:38;19.60;99.90
5246;DHT22;54412;51.206;6.888;2022-07-29T05:40:04;19.60;99.90
5246;DHT22;54412;51.206;6.888;2022-07-29T05:42:30;19.60;99.90
5246;DHT22;54412;51.206;6.888;2022-07-29T05:44:56;19.70;99.90
5246;DHT22;54412;51.206;6.888;2022-07-29T05:47:23;19.70;99.90
5246;DHT22;54412;51.206;6.888;2022-07-29T05:49:50;19.90;99.90
5246;DHT22;54412;51.206;6.888;2022-07-29T05:52:16;20.10;99.40
5246;DHT22;54412;51.206;6.888;2022-07-29T05:54:42;20.20;99.30
5246;DHT22;54412;51.206;6.888;2022-07-29T05:57:08;20.20;99.00
5246;DHT22;54412;51.206;6.888;2022-07-29T05:59:40;20.00;99.20
5246;DHT22;54412;51.206;6.888;2022-07-29T06:02:06;20.00;99.70
5246;DHT22;54412;51.206;6.888;2022-07-29T06:04:32;20.10;99.40
5246;DHT22;54412;51.206;6.888;2022-07-29T06:06:58;20.10;99.40
5246;DHT22;54412;51.206;6.888;2022-07-29T06:09:24;20.10;99.40
5246;DHT22;54412;51.206;6.888;2022-07-29T06:11:51;20.10;99.40
5246;DHT22;54412;51.206;6.888;2022-07-29T06:14:17;20.10;99.20
5246;DHT22;54412;51.206;6.888;2022-07-29T06:16:44;20.20;99.70
5246;DHT22;54412;51.206;6.888;2022-07-29T06:19:09;20.10;99.40
5246;DHT22;54412;51.206;6.888;2022-07-29T06:21:35;20.20;99.20
5246;DHT22;54412;51.206;6.888;2022-07-29T06:24:01;20.10;98.80
5246;DHT22;54412;51.206;6.888;2022-07-29T06:26:27;20.10;98.20
5246;DHT22;54412;51.206;6.888;2022-07-29T06:28:53;20.10;98.30
5246;DHT22;54412;51.206;6.888;2022-07-29T06:31:18;20.10;98.50
5246;DHT22;54412;51.206;6.888;2022-07-29T06:33:44;20.20;98.70
5246;DHT22;54412;51.206;6.888;2022-07-29T06:36:10;20.20;98.70
5246;DHT22;54412;51.206;6.888;2022-07-29T06:38:35;20.20;98.40
5246;DHT22;54412;51.206;6.888;2022-07-29T06:41:03;20.20;98.60
5246;DHT22;54412;51.206;6.888;2022-07-29T06:43:33;20.10;98.80
5246;DHT22;54412;51.206;6.888;2022-07-29T06:46:02;20.20;99.10
5246;DHT22;54412;51.206;6.888;2022-07-29T06:48:31;20.20;99.70
5246;DHT22;54412;51.206;6.888;2022-07-29T06:50:57;20.40;99.80
5246;DHT22;54412;51.206;6.888;2022-07-29T06:53:25;20.50;99.90
5246;DHT22;54412;51.206;6.888;2022-07-29T06:55:52;20.40;99.90
5246;DHT22;54412;51.206;6.888;2022-07-29T06:58:17;20.30;99.90
5246;DHT22;54412;51.206;6.888;2022-07-29T07:00:46;20.20;99.90
5246;DHT22;54412;51.206;6.888;2022-07-29T07:03:13;20.00;99.90
5246;DHT22;54412;51.206;6.888;2022-07-29T07:05:40;20.10;99.90
5246;DHT22;54412;51.206;6.888;2022-07-29T07:08:05;20.10;99.90
5246;DHT22;54412;51.206;6.888;2022-07-29T07:10:32;20.00;99.90
5246;DHT22;54412;51.206;6.888;2022-07-29T07:12:59;20.10;99.90
5246;DHT22;54412;51.206;6.888;2022-07-29T07:15:25;20.20;99.90
5246;DHT22;54412;51.206;6.888;2022-07-29T07:17:50;20.20;99.90
5246;DHT22;54412;51.206;6.888;2022-07-29T07:20:17;20.30;99.90
5246;DHT22;54412;51.206;6.888;2022-07-29T07:22:43;20.10;99.90
5246;DHT22;54412;51.206;6.888;2022-07-29T07:25:10;20.00;99.90
5246;DHT22;54412;51.206;6.888;2022-07-29T07:27:39;20.00;99.90
5246;DHT22;54412;51.206;6.888;2022-07-29T07:30:06;20.00;99.90
5246;DHT22;54412;51.206;6.888;2022-07-29T07:32:33;20.00;99.90
5246;DHT22;54412;51.206;6.888;2022-07-29T07:34:59;19.90;99.90
5246;DHT22;54412;51.206;6.888;2022-07-29T07:37:25;20.00;99.90
5246;DHT22;54412;51.206;6.888;2022-07-29T07:39:52;20.10;99.90
5246;DHT22;54412;51.206;6.888;2022-07-29T07:42:19;20.20;99.90
5246;DHT22;54412;51.206;6.888;2022-07-29T07:44:45;20.30;99.90
5246;DHT22;54412;51.206;6.888;2022-07-29T07:47:11;20.40;99.90
5246;DHT22;54412;51.206;6.888;2022-07-29T07:49:38;20.30;99.90
5246;DHT22;54412;51.206;6.888;2022-07-29T07:52:04;20.30;99.90
5246;DHT22;54412;51.206;6.888;2022-07-29T07:54:30;20.30;99.90
5246;DHT22;54412;51.206;6.888;2022-07-29T07:56:56;20.40;99.90
5246;DHT22;54412;51.206;6.888;2022-07-29T07:59:23;20.30;99.90
5246;DHT22;54412;51.206;6.888;2022-07-29T08:01:49;20.30;99.90
5246;DHT22;54412;51.206;6.888;2022-07-29T08:04:15;20.20;99.90
5246;DHT22;54412;51.206;6.888;2022-07-29T08:06:41;20.10;99.90
5246;DHT22;54412;51.206;6.888;2022-07-29T08:09:07;20.10;99.90
5246;DHT22;54412;51.206;6.888;2022-07-29T08:11:33;20.10;99.90
5246;DHT22;54412;51.206;6.888;2022-07-29T08:13:59;20.10;99.90
5246;DHT22;54412;51.206;6.888;2022-07-29T08:16:26;20.10;99.90
5246;DHT22;54412;51.206;6.888;2022-07-29T08:18:53;20.20;99.90
5246;DHT22;54412;51.206;6.888;2022-07-29T08:21:23;20.10;99.90
5246;DHT22;54412;51.206;6.888;2022-07-29T08:23:50;20.10;99.90
5246;DHT22;54412;51.206;6.888;2022-07-29T08:26:18;19.90;99.90
5246;DHT22;54412;51.206;6.888;2022-07-29T08:28:46;19.90;99.90
5246;DHT22;54412;51.206;6.888;2022-07-29T08:31:14;19.80;99.90
5246;DHT22;54412;51.206;6.888;2022-07-29T08:33:40;19.80;99.90
5246;DHT22;54412;51.206;6.888;2022-07-29T08:36:06;19.70;99.90
5246;DHT22;54412;51.206;6.888;2022-07-29T08:38:32;19.90;99.90
5246;DHT22;54412;51.206;6.888;2022-07-29T08:41:01;20.00;99.90
5246;DHT22;54412;51.206;6.888;2022-07-29T08:43:28;20.10;99.90
5246;DHT22;54412;51.206;6.888;2022-07-29T08:45:54;20.10;99.90
5246;DHT22;54412;51.206;6.888;2022-07-29T08:48:22;20.00;99.90
5246;DHT22;54412;51.206;6.888;2022-07-29T08:50:52;20.20;99.90
5246;DHT22;54412;51.206;6.888;2022-07-29T08:53:21;20.20;99.90
5246;DHT22;54412;51.206;6.888;2022-07-29T08:55:50;20.10;99.90
5246;DHT22;54412;51.206;6.888;2022-07-29T08:58:16;20.00;99.90
5246;DHT22;54412;51.206;6.888;2022-07-29T09:00:53;19.90;99.90
5246;DHT22;54412;51.206;6.888;2022-07-29T09:03:23;20.10;99.90
5246;DHT22;54412;51.206;6.888;2022-07-29T09:05:51;20.10;99.90
5246;DHT22;54412;51.206;6.888;2022-07-29T09:08:18;19.90;99.90
5246;DHT22;54412;51.206;6.888;2022-07-29T09:10:44;19.90;99.90
5246;DHT22;54412;51.206;6.888;2022-07-29T09:13:10;20.00;99.90
5246;DHT22;54412;51.206;6.888;2022-07-29T09:15:36;20.00;99.90
5246;DHT22;54412;51.206;6.888;2022-07-29T09:18:02;20.00;99.90
5246;DHT22;54412;51.206;6.888;2022-07-29T09:20:28;20.10;99.90
5246;DHT22;54412;51.206;6.888;2022-07-29T09:23:26;20.10;99.90
5246;DHT22;54412;51.206;6.888;2022-07-29T09:25:51;20.20;99.90
5246;DHT22;54412;51.206;6.888;2022-07-29T09:28:17;20.10;99.90
5246;DHT22;54412;51.206;6.888;2022-07-29T09:30:54;20.10;99.90
5246;DHT22;54412;51.206;6.888;2022-07-29T09:33:23;20.20;99.90
5246;DHT22;54412;51.206;6.888;2022-07-29T09:36:05;20.30;99.90
5246;DHT22;54412;51.206;6.888;2022-07-29T09:38:34;20.40;99.90
5246;DHT22;54412;51.206;6.888;2022-07-29T09:41:03;20.50;99.90
5246;DHT22;54412;51.206;6.888;2022-07-29T09:43:30;20.40;99.90
5246;DHT22;54412;51.206;6.888;2022-07-29T09:45:55;20.50;99.90
5246;DHT22;54412;51.206;6.888;2022-07-29T09:48:34;20.40;99.90
5246;DHT22;54412;51.206;6.888;2022-07-29T09:51:00;20.40;99.90
5246;DHT22;54412;51.206;6.888;2022-07-29T09:53:31;20.40;99.90
5246;DHT22;54412;51.206;6.888;2022-07-29T09:55:58;20.40;99.90
5246;DHT22;54412;51.206;6.888;2022-07-29T09:58:24;20.40;99.90
5246;DHT22;54412;51.206;6.888;2022-07-29T10:00:51;20.40;99.90
5246;DHT22;54412;51.206;6.888;2022-07-29T10:03:18;20.50;99.90
5246;DHT22;54412;51.206;6.888;2022-07-29T10:05:45;20.50;99.90
5246;DHT22;54412;51.206;6.888;2022-07-29T10:08:12;20.50;99.90
5246;DHT22;54412;51.206;6.888;2022-07-29T10:10:42;20.50;99.90
5246;DHT22;54412;51.206;6.888;2022-07-29T10:13:14;20.50;99.90
5246;DHT22;54412;51.206;6.888;2022-07-29T10:15:41;20.40;99.90
5246;DHT22;54412;51.206;6.888;2022-07-29T10:18:11;20.30;99.90
5246;DHT22;54412;51.206;6.888;2022-07-29T10:20:39;20.30;99.90
5246;DHT22;54412;51.206;6.888;2022-07-29T10:23:05;20.40;99.90
5246;DHT22;54412;51.206;6.888;2022-07-29T10:25:31;20.50;99.90
5246;DHT22;54412;51.206;6.888;2022-07-29T10:27:58;20.60;99.90
5246;DHT22;54412;51.206;6.888;2022-07-29T10:30:25;20.80;99.90
5246;DHT22;54412;51.206;6.888;2022-07-29T10:42:27;20.90;99.90
5246;DHT22;54412;51.206;6.888;2022-07-29T10:44:55;21.00;99.90
5246;DHT22;54412;51.206;6.888;2022-07-29T10:47:23;21.00;99.90
5246;DHT22;54412;51.206;6.888;2022-07-29T10:50:04;21.00;99.90
5246;DHT22;54412;51.206;6.888;2022-07-29T10:52:52;21.00;99.90
5246;DHT22;54412;51.206;6.888;2022-07-29T11:00:49;21.00;99.90
5246;DHT22;54412;51.206;6.888;2022-07-29T11:06:07;21.10;99.90
5246;DHT22;54412;51.206;6.888;2022-07-29T11:08:33;21.10;99.90
5246;DHT22;54412;51.206;6.888;2022-07-29T11:13:53;21.30;99.90
5246;DHT22;54412;51.206;6.888;2022-07-29T11:16:21;21.40;99.90
5246;DHT22;54412;51.206;6.888;2022-07-29T11:21:40;21.90;99.90
5246;DHT22;54412;51.206;6.888;2022-07-29T11:24:12;22.00;99.90
5246;DHT22;54412;51.206;6.888;2022-07-29T11:26:42;22.20;99.90
5246;DHT22;54412;51.206;6.888;2022-07-29T11:29:20;22.20;99.90
5246;DHT22;54412;51.206;6.888;2022-07-29T11:31:51;22.30;99.90
5246;DHT22;54412;51.206;6.888;2022-07-29T11:39:34;22.90;99.90
5246;DHT22;54412;51.206;6.888;2022-07-29T11:47:50;23.80;99.90
5246;DHT22;54412;51.206;6.888;2022-07-29T11:50:35;23.70;99.90
5246;DHT22;54412;51.206;6.888;2022-07-29T11:53:09;23.60;99.90
5246;DHT22;54412;51.206;6.888;2022-07-29T11:55:38;23.60;99.90
5246;DHT22;54412;51.206;6.888;2022-07-29T11:58:05;23.60;99.90
5246;DHT22;54412;51.206;6.888;2022-07-29T12:00:33;23.60;99.90
5246;DHT22;54412;51.206;6.888;2022-07-29T12:03:06;23.40;99.90
5246;DHT22;54412;51.206;6.888;2022-07-29T12:05:44;23.60;99.90
5246;DHT22;54412;51.206;6.888;2022-07-29T12:08:17;23.80;99.90
5246;DHT22;54412;51.206;6.888;2022-07-29T12:10:46;24.10;99.90
5246;DHT22;54412;51.206;6.888;2022-07-29T12:13:13;24.30;99.90
5246;DHT22;54412;51.206;6.888;2022-07-29T12:15:41;24.40;99.90
5246;DHT22;54412;51.206;6.888;2022-07-29T12:18:17;24.60;99.90
5246;DHT22;54412;51.206;6.888;2022-07-29T12:20:46;24.70;99.80
5246;DHT22;54412;51.206;6.888;2022-07-29T12:23:14;24.70;99.30
5246;DHT22;54412;51.206;6.888;2022-07-29T12:25:42;24.90;99.20
5246;DHT22;54412;51.206;6.888;2022-07-29T12:28:11;24.90;99.00
5246;DHT22;54412;51.206;6.888;2022-07-29T12:30:46;24.70;97.60
5246;DHT22;54412;51.206;6.888;2022-07-29T12:33:25;24.40;97.70
5246;DHT22;54412;51.206;6.888;2022-07-29T12:36:00;24.40;98.30
5246;DHT22;54412;51.206;6.888;2022-07-29T12:38:27;24.40;98.50
5246;DHT22;54412;51.206;6.888;2022-07-29T12:40:54;24.60;98.90
5246;DHT22;54412;51.206;6.888;2022-07-29T12:43:22;24.80;98.60
5246;DHT22;54412;51.206;6.888;2022-07-29T12:45:53;24.90;98.10
5246;DHT22;54412;51.206;6.888;2022-07-29T12:48:37;24.90;97.50
5246;DHT22;54412;51.206;6.888;2022-07-29T12:51:06;25.10;97.50
5246;DHT22;54412;51.206;6.888;2022-07-29T12:53:34;25.10;97.10
5246;DHT22;54412;51.206;6.888;2022-07-29T12:56:01;25.30;98.10
5246;DHT22;54412;51.206;6.888;2022-07-29T12:58:32;25.30;97.90
5246;DHT22;54412;51.206;6.888;2022-07-29T13:01:04;25.40;98.00
5246;DHT22;54412;51.206;6.888;2022-07-29T13:06:32;25.50;97.10
5246;DHT22;54412;51.206;6.888;2022-07-29T13:09:06;25.70;97.40
5246;DHT22;54412;51.206;6.888;2022-07-29T13:11:39;25.70;96.50
5246;DHT22;54412;51.206;6.888;2022-07-29T13:14:11;25.60;96.40
5246;DHT22;54412;51.206;6.888;2022-07-29T13:17:01;25.60;96.40
5246;DHT22;54412;51.206;6.888;2022-07-29T13:19:37;25.50;95.70
5246;DHT22;54412;51.206;6.888;2022-07-29T13:22:04;25.20;95.90
5246;DHT22;54412;51.206;6.888;2022-07-29T13:24:29;25.30;96.70
5246;DHT22;54412;51.206;6.888;2022-07-29T13:26:55;25.50;96.60
5246;DHT22;54412;51.206;6.888;2022-07-29T13:29:21;25.50;95.40
5246;DHT22;54412;51.206;6.888;2022-07-29T13:31:47;25.60;96.00
5246;DHT22;54412;51.206;6.888;2022-07-29T13:34:12;25.60;95.60
5246;DHT22;54412;51.206;6.888;2022-07-29T13:36:38;25.80;95.80
5246;DHT22;54412;51.206;6.888;2022-07-29T13:39:04;25.70;94.80
5246;DHT22;54412;51.206;6.888;2022-07-29T13:41:30;25.70;95.50
5246;DHT22;54412;51.206;6.888;2022-07-29T13:43:55;25.90;95.50
5246;DHT22;54412;51.206;6.888;2022-07-29T13:46:21;25.90;95.00
5246;DHT22;54412;51.206;6.888;2022-07-29T13:48:46;25.90;94.40
5246;DHT22;54412;51.206;6.888;2022-07-29T13:51:12;26.10;95.10
5246;DHT22;54412;51.206;6.888;2022-07-29T13:53:38;26.20;94.80
5246;DHT22;54412;51.206;6.888;2022-07-29T13:56:04;26.20;94.80
5246;DHT22;54412;51.206;6.888;2022-07-29T13:58:33;26.30;95.00
5246;DHT22;54412;51.206;6.888;2022-07-29T14:00:59;26.20;94.40
5246;DHT22;54412;51.206;6.888;2022-07-29T14:03:25;26.30;93.60
5246;DHT22;54412;51.206;6.888;2022-07-29T14:05:51;26.30;94.50
5246;DHT22;54412;51.206;6.888;2022-07-29T14:08:17;26.20;93.60
5246;DHT22;54412;51.206;6.888;2022-07-29T14:10:43;26.20;93.60
5246;DHT22;54412;51.206;6.888;2022-07-29T14:13:09;26.20;93.80
5246;DHT22;54412;51.206;6.888;2022-07-29T14:15:34;26.20;94.50
5246;DHT22;54412;51.206;6.888;2022-07-29T14:18:01;26.20;94.30
5246;DHT22;54412;51.206;6.888;2022-07-29T14:20:27;26.10;94.40
5246;DHT22;54412;51.206;6.888;2022-07-29T14:22:55;26.10;95.10
5246;DHT22;54412;51.206;6.888;2022-07-29T14:25:21;26.20;95.50
5246;DHT22;54412;51.206;6.888;2022-07-29T14:27:47;26.10;94.60
5246;DHT22;54412;51.206;6.888;2022-07-29T14:30:13;26.00;94.90
5246;DHT22;54412;51.206;6.888;2022-07-29T14:32:39;26.20;95.30
5246;DHT22;54412;51.206;6.888;2022-07-29T14:35:06;26.00;94.20
5246;DHT22;54412;51.206;6.888;2022-07-29T14:37:33;26.10;95.30
5246;DHT22;54412;51.206;6.888;2022-07-29T14:40:01;26.10;95.00
5246;DHT22;54412;51.206;6.888;2022-07-29T14:42:29;26.10;95.20
5246;DHT22;54412;51.206;6.888;2022-07-29T14:44:56;26.20;94.90
5246;DHT22;54412;51.206;6.888;2022-07-29T14:47:22;26.20;94.60
5246;DHT22;54412;51.206;6.888;2022-07-29T14:49:48;26.20;94.90
5246;DHT22;54412;51.206;6.888;2022-07-29T14:52:14;26.10;94.60
5246;DHT22;54412;51.206;6.888;2022-07-29T14:54:40;26.00;93.80
5246;DHT22;54412;51.206;6.888;2022-07-29T14:57:06;25.80;93.70
5246;DHT22;54412;51.206;6.888;2022-07-29T14:59:32;25.70;94.70
5246;DHT22;54412;51.206;6.888;2022-07-29T15:01:58;25.70;94.60
5246;DHT22;54412;51.206;6.888;2022-07-29T15:04:23;25.80;94.20
5246;DHT22;54412;51.206;6.888;2022-07-29T15:06:49;25.80;94.40
5246;DHT22;54412;51.206;6.888;2022-07-29T15:09:15;25.80;94.60
5246;DHT22;54412;51.206;6.888;2022-07-29T15:11:41;25.80;94.20
5246;DHT22;54412;51.206;6.888;2022-07-29T15:14:07;25.50;94.10
5246;DHT22;54412;51.206;6.888;2022-07-29T15:16:35;25.40;94.40
5246;DHT22;54412;51.206;6.888;2022-07-29T15:19:02;25.40;95.00
5246;DHT22;54412;51.206;6.888;2022-07-29T15:21:29;25.30;94.60
5246;DHT22;54412;51.206;6.888;2022-07-29T15:23:54;25.40;94.70
5246;DHT22;54412;51.206;6.888;2022-07-29T15:26:20;25.50;94.50
5246;DHT22;54412;51.206;6.888;2022-07-29T15:28:46;25.50;94.80
5246;DHT22;54412;51.206;6.888;2022-07-29T15:31:11;25.60;94.90
5246;DHT22;54412;51.206;6.888;2022-07-29T15:33:37;25.60;95.10
5246;DHT22;54412;51.206;6.888;2022-07-29T15:36:03;25.50;94.20
5246;DHT22;54412;51.206;6.888;2022-07-29T15:38:30;25.30;94.40
5246;DHT22;54412;51.206;6.888;2022-07-29T15:40:56;25.20;94.80
5246;DHT22;54412;51.206;6.888;2022-07-29T15:43:22;25.10;94.40
5246;DHT22;54412;51.206;6.888;2022-07-29T15:45:48;25.00;94.60
5246;DHT22;54412;51.206;6.888;2022-07-29T15:48:33;24.90;95.00
5246;DHT22;54412;51.206;6.888;2022-07-29T15:51:03;24.90;95.10
5246;DHT22;54412;51.206;6.888;2022-07-29T15:53:29;24.90;95.50
5246;DHT22;54412;51.206;6.888;2022-07-29T15:55:54;24.80;95.40
5246;DHT22;54412;51.206;6.888;2022-07-29T15:58:20;24.80;95.00
5246;DHT22;54412;51.206;6.888;2022-07-29T16:00:47;24.80;94.70
5246;DHT22;54412;51.206;6.888;2022-07-29T16:03:13;24.90;94.30
5246;DHT22;54412;51.206;6.888;2022-07-29T16:05:39;24.90;93.90
5246;DHT22;54412;51.206;6.888;2022-07-29T16:08:05;24.90;94.50
5246;DHT22;54412;51.206;6.888;2022-07-29T16:10:31;24.90;94.20
5246;DHT22;54412;51.206;6.888;2022-07-29T16:12:56;24.90;93.60
5246;DHT22;54412;51.206;6.888;2022-07-29T16:15:22;24.90;94.20
5246;DHT22;54412;51.206;6.888;2022-07-29T16:17:48;25.00;94.20
5246;DHT22;54412;51.206;6.888;2022-07-29T16:20:14;25.00;93.50
5246;DHT22;54412;51.206;6.888;2022-07-29T16:22:41;25.00;93.70
5246;DHT22;54412;51.206;6.888;2022-07-29T16:25:07;25.00;93.50
5246;DHT22;54412;51.206;6.888;2022-07-29T16:27:34;25.00;93.80
5246;DHT22;54412;51.206;6.888;2022-07-29T16:29:59;25.00;93.60
5246;DHT22;54412;51.206;6.888;2022-07-29T16:32:25;24.90;93.10
5246;DHT22;54412;51.206;6.888;2022-07-29T16:34:51;24.90;92.50